Newnan, GA (30263)

8:48 PM EDT on August 27, 2015 (GMT -0400)
Newnan | | Change Station
CLOSE
Current Station
Personal Weather Station
Location: Newnan, GA
Elevation: 873 ft
Nearby Weather Stations

Elev 873 ft 33.42 °N, 84.81 °W | Updated 9 minutes ago

Clear
Clear
72.7 °F
Feels Like 71 °F
N
0.0
Wind Variable Wind from NE

Today
High -- | Low -- °F
--% Chance of Precip.
Yesterday
High -- | Low -- °F
Precip. -- in
7:10 AM 8:11 PM
Waxing Gibbous, 96% visible
Pressure 30.01 in
Visibility 6.0 miles
Clouds Clear
Heat Index 71 °F
Dew Point 69 °F
Humidity 88%
Rainfall 0.00 in
Snow Depth Not available.
UV 0 out of 12
Pollen 8.40 out of 12
Air Quality Not available.
Flu Activity Not available.
METAR KFFC 272353Z AUTO 09003KT 6SM HZ CLR 26/18 A3002 RMK AO2 SLP160 T02610183 10294 20261 53007
Pressure 30.01 in
Visibility 6.0 miles
Clouds Clear
Heat Index 71 °F
Dew Point 69 °F
Humidity 88%
Rainfall 0.00 in
Snow Depth Not available.
UV 0 out of 12
Pollen 8.40 out of 12
Air Quality Not available.
Flu Activity Not available.
METAR KFFC 272353Z AUTO 09003KT 6SM HZ CLR 26/18 A3002 RMK AO2 SLP160 T02610183 10294 20261 53007

10-Day Weather Forecast

×

Almanac

Astronomy

Aug. 27, 2015 Rise Set
Actual Time
Civil Twilight
Nautical Twilight
Astronomical Twilight
Moon
Length of Visible Light
Length of Day
Tomorrow will be .
, % of the Moon is Illuminated

Today's Extremes

State Highs State Lows

Community

WunderPhotos

Upload Photos

1,850,275 photos uploaded!

WunderBlogs® & News

Nearby

Air Quality

  Air Quality AQ Index Pollutant
Not available.

Snow Depth

Station Depth Elevation

Earthquake Activity

City Distance Mag. Time & Date
Minimum magnitude displayed is 2.5.

Coastal Water Temperatures

Place Temperature

Stations

Nearby Weather Stations

Station Location Temp. Windchill Dew Point Humidity Wind Precip. Elev Updated Type